createdAt,value
2019-02-02T00:02:13.819Z,47.07
2019-02-02T00:04:41.364Z,37.03
2019-02-02T00:07:09.459Z,38.20
2019-02-02T00:09:37.083Z,40.37
2019-02-02T00:12:04.773Z,37.33
2019-02-02T00:14:32.176Z,40.30
2019-02-02T00:16:59.602Z,40.50
2019-02-02T00:19:26.997Z,36.93
2019-02-02T00:21:54.526Z,34.87
2019-02-02T00:24:22.028Z,36.13
2019-02-02T00:26:49.425Z,33.20
2019-02-02T00:29:16.814Z,30.60
2019-02-02T00:31:44.299Z,41.90
2019-02-02T00:34:11.696Z,38.37
2019-02-02T00:36:39.101Z,43.13
2019-02-02T00:39:10.109Z,39.20
2019-02-02T00:41:37.520Z,39.90
2019-02-02T00:44:05.524Z,43.53
2019-02-02T00:46:33.060Z,35.13
2019-02-02T00:49:00.463Z,32.00
2019-02-02T00:51:27.870Z,33.30
2019-02-02T00:53:55.491Z,36.83
2019-02-02T00:56:22.894Z,36.70
2019-02-02T00:58:50.294Z,40.83
2019-02-02T01:01:18.235Z,39.77
2019-02-02T01:03:46.518Z,37.07
2019-02-02T01:06:13.929Z,42.90
2019-02-02T01:08:42.311Z,42.70
2019-02-02T01:11:09.727Z,45.90
2019-02-02T01:13:37.131Z,45.87
2019-02-02T01:16:04.742Z,42.43
2019-02-02T01:18:32.167Z,53.03
2019-02-02T01:20:59.566Z,45.57
2019-02-02T01:23:27.027Z,39.67
2019-02-02T01:25:54.420Z,34.30
2019-02-02T01:28:21.803Z,29.47
2019-02-02T01:30:49.479Z,30.53
2019-02-02T01:33:16.869Z,44.63
2019-02-02T01:35:44.267Z,47.60
2019-02-02T01:38:11.819Z,34.83
2019-02-02T01:40:39.206Z,43.07
2019-02-02T01:43:06.807Z,38.37
2019-02-02T01:45:34.446Z,42.80
2019-02-02T01:48:03.782Z,36.17
2019-02-02T01:50:31.155Z,48.20
2019-02-02T01:52:58.782Z,40.17
2019-02-02T01:55:26.173Z,36.83
2019-02-02T01:57:53.571Z,30.73
2019-02-02T02:00:23.525Z,34.10
2019-02-02T02:02:51.123Z,41.63
2019-02-02T02:05:18.779Z,41.70
2019-02-02T02:07:46.611Z,34.20
2019-02-02T02:10:15.147Z,40.37
2019-02-02T02:12:42.527Z,34.30
2019-02-02T02:15:11.995Z,34.20
2019-02-02T02:17:39.491Z,41.73
2019-02-02T02:20:08.067Z,38.63
2019-02-02T02:22:41.102Z,41.37
2019-02-02T02:25:07.979Z,46.17
2019-02-02T02:27:35.389Z,43.73
2019-02-02T02:30:03.880Z,34.17
2019-02-02T02:32:31.468Z,35.53
2019-02-02T02:34:58.885Z,31.20
2019-02-02T02:37:26.458Z,36.47
2019-02-02T02:39:53.958Z,31.23
2019-02-02T02:42:21.344Z,44.80
2019-02-02T02:44:48.806Z,42.30
2019-02-02T02:47:16.207Z,35.30
2019-02-02T02:49:44.695Z,44.10
2019-02-02T02:52:12.159Z,44.67
2019-02-02T02:54:39.551Z,43.90
2019-02-02T02:57:06.938Z,30.57
2019-02-02T02:59:34.605Z,26.20
2019-02-02T03:02:01.998Z,30.50
2019-02-02T03:04:29.532Z,34.73
2019-02-02T03:06:57.171Z,43.90
2019-02-02T03:09:24.562Z,38.27
2019-02-02T03:11:51.951Z,35.13
2019-02-02T03:14:19.566Z,43.53
2019-02-02T03:16:46.950Z,35.23
2019-02-02T03:19:14.349Z,38.50
2019-02-02T03:21:43.716Z,34.07
2019-02-02T03:24:11.003Z,44.43
2019-02-02T03:26:38.403Z,37.83
2019-02-02T03:29:05.872Z,42.90
2019-02-02T03:31:33.269Z,35.67
2019-02-02T03:34:00.664Z,36.50
2019-02-02T03:36:28.102Z,29.83
2019-02-02T03:38:55.483Z,32.57
2019-02-02T03:41:22.869Z,33.67
2019-02-02T03:43:50.312Z,29.33
2019-02-02T03:46:17.686Z,38.40
2019-02-02T03:48:45.087Z,44.30
2019-02-02T03:51:12.614Z,47.07
2019-02-02T03:53:41.808Z,41.00
2019-02-02T03:56:09.214Z,29.43
2019-02-02T03:58:36.759Z,42.90
2019-02-02T04:01:04.142Z,34.30
2019-02-02T04:03:31.541Z,33.27
2019-02-02T04:05:59.446Z,36.07
2019-02-02T04:08:27.063Z,27.23
2019-02-02T04:10:54.446Z,40.80
2019-02-02T04:13:22.242Z,43.03
2019-02-02T04:15:49.643Z,36.03
2019-02-02T04:18:17.038Z,41.40
2019-02-02T04:20:44.506Z,42.40
2019-02-02T04:23:11.894Z,38.07
2019-02-02T04:25:39.290Z,34.40
2019-02-02T04:28:06.759Z,34.40
2019-02-02T04:30:34.166Z,28.73
2019-02-02T04:33:01.588Z,40.07
2019-02-02T04:35:29.204Z,40.07
2019-02-02T04:37:56.606Z,37.40
2019-02-02T04:40:24.011Z,34.80
2019-02-02T04:42:51.585Z,35.63
2019-02-02T04:45:18.982Z,35.03
2019-02-02T04:47:46.495Z,27.67
2019-02-02T04:50:15.098Z,40.03
2019-02-02T04:52:42.506Z,28.97
2019-02-02T04:55:11.483Z,36.60
2019-02-02T04:57:38.955Z,34.17
2019-02-02T05:00:09.971Z,32.93
2019-02-02T05:02:37.361Z,37.53
2019-02-02T05:05:06.155Z,29.40
2019-02-02T05:07:33.630Z,29.30
2019-02-02T05:10:01.203Z,28.47
2019-02-02T05:12:28.802Z,26.00
2019-02-02T05:14:56.192Z,36.23
2019-02-02T05:17:23.584Z,36.70
2019-02-02T05:19:51.198Z,36.30
2019-02-02T05:22:18.611Z,37.70
2019-02-02T05:24:46.010Z,44.17
2019-02-02T05:27:13.474Z,41.13
2019-02-02T05:29:41.839Z,32.73
2019-02-02T05:32:09.277Z,38.70
2019-02-02T05:34:36.699Z,42.03
2019-02-02T05:37:04.090Z,33.47
2019-02-02T05:39:31.496Z,28.47
2019-02-02T05:41:59.182Z,34.57
2019-02-02T05:44:26.646Z,28.27
2019-02-02T05:46:54.052Z,37.70
2019-02-02T05:49:21.678Z,42.50
2019-02-02T05:51:49.072Z,40.13
2019-02-02T05:54:16.470Z,34.60
2019-02-02T05:56:44.268Z,37.70
2019-02-02T05:59:11.657Z,38.07
2019-02-02T06:01:39.059Z,41.57
2019-02-02T06:04:06.542Z,40.20
2019-02-02T06:06:34.115Z,31.13
2019-02-02T06:09:01.707Z,37.70
2019-02-02T06:11:29.163Z,36.23
2019-02-02T06:13:56.564Z,34.23
2019-02-02T06:16:23.963Z,36.97
2019-02-02T06:18:51.523Z,37.53
2019-02-02T06:21:18.931Z,34.57
2019-02-02T06:23:46.326Z,46.00
2019-02-02T06:26:14.011Z,44.60
2019-02-02T06:28:41.398Z,35.63
2019-02-02T06:31:09.115Z,38.97
2019-02-02T06:33:36.550Z,43.20
2019-02-02T06:36:04.198Z,34.40
2019-02-02T06:38:31.588Z,32.17
2019-02-02T06:40:59.022Z,46.33
2019-02-02T06:43:26.426Z,34.47
2019-02-02T06:45:53.833Z,29.40
2019-02-02T06:48:21.427Z,32.47
2019-02-02T06:50:48.835Z,40.90
2019-02-02T06:53:16.242Z,41.90
2019-02-02T06:55:43.692Z,41.17
2019-02-02T06:58:11.086Z,33.60
2019-02-02T07:00:38.493Z,39.13
2019-02-02T07:03:06.051Z,33.33
2019-02-02T07:05:34.028Z,42.17
2019-02-02T07:08:01.742Z,42.77
2019-02-02T07:10:29.462Z,47.20
2019-02-02T07:12:56.852Z,52.30
2019-02-02T07:15:26.348Z,44.70
2019-02-02T07:17:53.902Z,41.47
2019-02-02T07:20:21.327Z,38.50
2019-02-02T07:22:48.727Z,35.47
2019-02-02T07:25:16.187Z,48.27
2019-02-02T07:27:43.600Z,53.50
2019-02-02T07:30:13.478Z,52.30
2019-02-02T07:32:41.013Z,41.00
2019-02-02T07:35:09.224Z,47.53
2019-02-02T07:37:36.603Z,39.63
2019-02-02T07:40:05.699Z,44.87
2019-02-02T07:42:33.091Z,49.10
2019-02-02T07:45:00.628Z,50.60
2019-02-02T07:47:28.251Z,56.47
2019-02-02T07:49:55.647Z,49.50
2019-02-02T07:52:23.078Z,42.30
2019-02-02T07:54:50.638Z,46.43
2019-02-02T07:57:18.127Z,45.10
2019-02-02T07:59:45.534Z,51.50
2019-02-02T08:02:13.126Z,46.30
2019-02-02T08:04:40.544Z,40.90
2019-02-02T08:07:08.731Z,47.63
2019-02-02T08:09:36.426Z,50.80
2019-02-02T08:12:03.934Z,49.30
2019-02-02T08:14:31.348Z,70.07
2019-02-02T08:16:58.798Z,50.73
2019-02-02T08:19:26.209Z,55.37
2019-02-02T08:21:53.627Z,74.47
2019-02-02T08:24:21.083Z,57.53
2019-02-02T08:26:48.466Z,54.03
2019-02-02T08:29:15.869Z,50.33
2019-02-02T08:31:43.604Z,61.57
2019-02-02T08:34:11.011Z,74.53
2019-02-02T08:36:38.422Z,62.10
2019-02-02T08:39:08.589Z,57.17
2019-02-02T08:41:37.704Z,66.73
2019-02-02T08:44:05.111Z,75.97
2019-02-02T08:46:33.982Z,61.03
2019-02-02T08:49:01.719Z,50.70
2019-02-02T08:51:29.106Z,49.40
2019-02-02T08:53:56.564Z,57.77
2019-02-02T08:56:23.943Z,54.07
2019-02-02T08:58:51.338Z,57.97
2019-02-02T09:01:18.812Z,46.97
2019-02-02T09:03:46.261Z,54.23
2019-02-02T09:06:14.129Z,60.43
2019-02-02T09:08:42.168Z,48.60
2019-02-02T09:11:09.994Z,57.63
2019-02-02T09:13:37.412Z,54.73
2019-02-02T09:16:05.174Z,52.93
2019-02-02T09:18:32.575Z,57.83
2019-02-02T09:21:00.052Z,58.20
2019-02-02T09:23:27.507Z,54.67
2019-02-02T09:25:54.902Z,46.90
2019-02-02T09:28:22.320Z,36.43
2019-02-02T09:30:49.734Z,57.03
2019-02-02T09:33:17.137Z,50.50
2019-02-02T09:35:44.523Z,64.83
2019-02-02T09:38:12.388Z,51.00
2019-02-02T09:40:39.826Z,45.73
2019-02-02T09:43:07.224Z,50.20
2019-02-02T09:45:34.934Z,56.93
2019-02-02T09:48:02.345Z,48.33
2019-02-02T09:50:29.734Z,52.40
2019-02-02T09:52:57.278Z,57.73
2019-02-02T09:55:24.998Z,50.73
2019-02-02T09:57:55.004Z,54.80
2019-02-02T10:00:25.479Z,45.97
2019-02-02T10:02:52.900Z,38.70
2019-02-02T10:05:20.302Z,38.03
2019-02-02T10:07:48.005Z,32.13
2019-02-02T10:10:21.063Z,45.00
2019-02-02T10:12:48.653Z,50.03
2019-02-02T10:15:17.098Z,47.57
2019-02-02T10:17:44.486Z,41.00
2019-02-02T10:20:14.667Z,35.40
2019-02-02T10:22:42.322Z,40.00
2019-02-02T10:25:11.438Z,43.07
2019-02-02T10:27:38.840Z,41.80
2019-02-02T10:30:16.165Z,46.47
2019-02-02T10:32:43.571Z,34.90
2019-02-02T10:35:10.966Z,51.27
2019-02-02T10:37:38.400Z,34.43
2019-02-02T10:40:07.364Z,28.97
2019-02-02T10:42:34.750Z,45.00
2019-02-02T10:45:02.384Z,36.13
2019-02-02T10:47:29.782Z,39.60
2019-02-02T10:49:57.174Z,39.80
2019-02-02T10:52:24.612Z,45.00
2019-02-02T10:54:51.995Z,39.67
2019-02-02T10:57:19.493Z,39.10
2019-02-02T10:59:48.960Z,43.17
2019-02-02T11:02:17.841Z,50.87
2019-02-02T11:04:45.460Z,42.00
2019-02-02T11:07:13.169Z,50.57
2019-02-02T11:09:40.522Z,44.43
2019-02-02T11:12:08.136Z,36.70
2019-02-02T11:14:35.870Z,34.33
2019-02-02T11:17:03.406Z,35.90
2019-02-02T11:19:30.911Z,31.80
2019-02-02T11:21:58.481Z,34.07
2019-02-02T11:24:25.868Z,28.80
2019-02-02T11:26:53.240Z,30.17
2019-02-02T11:29:21.299Z,38.90
2019-02-02T11:31:48.772Z,34.53
2019-02-02T11:34:16.288Z,32.70
2019-02-02T11:36:44.018Z,26.77
2019-02-02T11:39:11.419Z,25.53
2019-02-02T11:41:38.809Z,30.60
2019-02-02T11:44:06.256Z,34.07
2019-02-02T11:46:33.669Z,27.10
2019-02-02T11:49:01.082Z,32.07
2019-02-02T11:51:28.523Z,30.47
2019-02-02T11:53:55.924Z,25.50
2019-02-02T11:56:23.323Z,30.43
2019-02-02T11:58:50.951Z,35.83
2019-02-02T12:01:18.342Z,25.73
2019-02-02T12:03:45.731Z,41.23
2019-02-02T12:06:13.339Z,66.37
2019-02-02T12:08:41.022Z,30.20
2019-02-02T12:11:08.456Z,31.13
2019-02-02T12:13:36.131Z,27.63
2019-02-02T12:16:03.535Z,34.90
2019-02-02T12:18:30.949Z,39.07
2019-02-02T12:20:58.726Z,28.70
2019-02-02T12:23:26.126Z,23.57
2019-02-02T12:25:53.534Z,22.13
2019-02-02T12:28:21.120Z,27.93
2019-02-02T12:30:48.515Z,30.20
2019-02-02T12:33:15.915Z,28.83
2019-02-02T12:35:43.499Z,28.20
2019-02-02T12:38:10.891Z,33.93
2019-02-02T12:40:38.302Z,41.57
2019-02-02T12:43:06.082Z,34.30
2019-02-02T12:45:36.738Z,30.70
2019-02-02T12:48:04.576Z,42.30
2019-02-02T12:50:32.056Z,42.70
2019-02-02T12:52:59.540Z,41.63
2019-02-02T12:55:26.854Z,47.83
2019-02-02T12:57:54.335Z,31.20
2019-02-02T13:00:21.726Z,31.90
2019-02-02T13:02:49.122Z,28.83
2019-02-02T13:05:18.510Z,31.10
2019-02-02T13:07:45.987Z,26.80
2019-02-02T13:10:19.246Z,27.60
2019-02-02T13:12:46.830Z,24.17
2019-02-02T13:15:14.336Z,27.93
2019-02-02T13:17:41.722Z,23.63
2019-02-02T13:20:10.586Z,27.80
2019-02-02T13:22:37.968Z,24.30
2019-02-02T13:25:08.014Z,26.30
2019-02-02T13:27:35.652Z,30.40
2019-02-02T13:30:05.294Z,21.10
2019-02-02T13:32:32.706Z,21.97
2019-02-02T13:35:00.390Z,25.03
2019-02-02T13:37:27.807Z,23.53
2019-02-02T13:39:55.250Z,28.77
2019-02-02T13:42:22.790Z,26.13
2019-02-02T13:44:50.217Z,23.40
2019-02-02T13:47:17.621Z,22.13
2019-02-02T13:49:45.475Z,22.40
2019-02-02T13:52:12.923Z,22.67
2019-02-02T13:54:40.311Z,21.60
2019-02-02T13:57:07.875Z,20.53
2019-02-02T13:59:35.292Z,23.47
2019-02-02T14:02:02.680Z,19.50
2019-02-02T14:04:30.261Z,18.83
2019-02-02T14:06:57.931Z,18.83
2019-02-02T14:09:25.525Z,16.30
2019-02-02T14:11:52.958Z,20.87
2019-02-02T14:14:20.361Z,16.13
2019-02-02T14:16:47.760Z,15.73
2019-02-02T14:19:15.217Z,13.00
2019-02-02T14:21:44.229Z,12.53
2019-02-02T14:24:11.643Z,15.50
2019-02-02T14:26:39.206Z,12.13
2019-02-02T14:29:06.622Z,10.80
2019-02-02T14:31:34.022Z,11.33
2019-02-02T14:34:02.625Z,10.93
2019-02-02T14:36:29.976Z,9.57
2019-02-02T14:38:57.383Z,12.90
2019-02-02T14:41:25.042Z,15.40
2019-02-02T14:43:55.553Z,20.93
2019-02-02T14:46:21.570Z,26.03
2019-02-02T14:48:49.378Z,21.37
2019-02-02T14:51:16.782Z,15.87
2019-02-02T14:53:44.192Z,18.00
2019-02-02T14:56:11.867Z,45.37
2019-02-02T14:58:39.266Z,32.43
2019-02-02T15:01:06.664Z,31.53
2019-02-02T15:03:34.134Z,57.30
2019-02-02T15:06:01.543Z,64.33
2019-02-02T15:08:29.098Z,60.53
2019-02-02T15:10:57.254Z,59.60
2019-02-02T15:13:26.672Z,43.93
2019-02-02T15:15:53.940Z,27.37
2019-02-02T15:18:21.382Z,20.30
2019-02-02T15:20:48.773Z,25.70
2019-02-02T15:23:16.162Z,18.67
2019-02-02T15:25:43.980Z,22.30
2019-02-02T15:28:11.366Z,21.73
2019-02-02T15:30:38.788Z,25.43
2019-02-02T15:33:06.288Z,22.80
2019-02-02T15:35:33.699Z,17.00
2019-02-02T15:38:01.116Z,17.93
2019-02-02T15:40:31.411Z,23.60
2019-02-02T15:42:57.790Z,29.80
2019-02-02T15:45:26.564Z,36.40
2019-02-02T15:47:54.219Z,29.20
2019-02-02T15:50:21.612Z,25.00
2019-02-02T15:52:49.042Z,19.17
2019-02-02T15:55:21.001Z,33.87
2019-02-02T15:57:48.400Z,24.03
2019-02-02T16:00:18.590Z,20.13
2019-02-02T16:02:46.026Z,40.07
2019-02-02T16:05:14.446Z,58.70
2019-02-02T16:07:42.202Z,71.70
2019-02-02T16:10:15.392Z,62.73
2019-02-02T16:12:44.508Z,43.20
2019-02-02T16:15:12.094Z,53.10
2019-02-02T16:17:39.551Z,56.47
2019-02-02T16:20:10.893Z,39.73
2019-02-02T16:22:38.566Z,37.87
2019-02-02T16:25:07.635Z,29.90
2019-02-02T16:27:35.175Z,36.90
2019-02-02T16:30:03.389Z,31.60
2019-02-02T16:32:31.145Z,23.30
2019-02-02T16:34:58.539Z,18.60
2019-02-02T16:37:25.939Z,16.53
2019-02-02T16:39:53.394Z,14.17
2019-02-02T16:42:21.016Z,14.33
2019-02-02T16:44:48.419Z,19.93
2019-02-02T16:47:16.022Z,22.43
2019-02-02T16:49:43.430Z,26.30
2019-02-02T16:52:10.822Z,22.33
2019-02-02T16:54:38.812Z,36.20
2019-02-02T16:57:06.214Z,37.60
2019-02-02T16:59:33.610Z,30.07
2019-02-02T17:02:01.074Z,35.50
2019-02-02T17:04:28.487Z,26.53
2019-02-02T17:06:55.883Z,33.97
2019-02-02T17:09:23.381Z,35.57
2019-02-02T17:11:51.254Z,33.60
2019-02-02T17:14:18.649Z,36.77
2019-02-02T17:16:46.079Z,37.53
2019-02-02T17:19:13.466Z,29.60
2019-02-02T17:21:40.963Z,28.60
2019-02-02T17:24:08.666Z,24.93
2019-02-02T17:26:36.067Z,29.20
2019-02-02T17:29:03.672Z,38.20
2019-02-02T17:31:31.273Z,29.83
2019-02-02T17:33:58.670Z,38.23
2019-02-02T17:36:26.070Z,43.20
2019-02-02T17:38:53.518Z,38.40
2019-02-02T17:41:20.926Z,42.10
2019-02-02T17:43:48.342Z,34.90
2019-02-02T17:46:15.814Z,47.50
2019-02-02T17:48:43.226Z,64.43
2019-02-02T17:51:10.621Z,58.67
2019-02-02T17:53:38.092Z,45.20
2019-02-02T17:56:05.539Z,39.83
2019-02-02T17:58:39.663Z,35.77
2019-02-02T18:01:02.603Z,33.77
2019-02-02T18:03:31.290Z,37.70
2019-02-02T18:05:58.714Z,35.03
2019-02-02T18:08:26.313Z,55.97
2019-02-02T18:10:54.267Z,72.07
2019-02-02T18:13:21.679Z,167.10
2019-02-02T18:15:49.323Z,68.57
2019-02-02T18:18:16.722Z,41.90
2019-02-02T18:20:44.131Z,35.07
2019-02-02T18:23:11.590Z,36.83
2019-02-02T18:25:38.994Z,31.03
2019-02-02T18:28:06.398Z,30.00
2019-02-02T18:30:33.836Z,26.13
2019-02-02T18:33:01.438Z,20.03
2019-02-02T18:35:28.873Z,32.60
2019-02-02T18:37:56.424Z,26.90
2019-02-02T18:40:23.930Z,29.43
2019-02-02T18:42:51.630Z,32.20
2019-02-02T18:45:21.979Z,32.30
2019-02-02T18:47:49.358Z,31.97
2019-02-02T18:50:16.778Z,32.37
2019-02-02T18:52:45.059Z,38.13
2019-02-02T18:55:21.387Z,55.03
2019-02-02T18:57:48.939Z,145.17
2019-02-02T19:00:17.976Z,165.43
2019-02-02T19:02:45.329Z,108.37
2019-02-02T19:05:13.694Z,60.93
2019-02-02T19:07:41.188Z,50.23
2019-02-02T19:10:12.462Z,49.40
2019-02-02T19:12:40.240Z,41.20
2019-02-02T19:15:08.756Z,30.00
2019-02-02T19:17:36.160Z,40.57
2019-02-02T19:20:06.106Z,47.80
2019-02-02T19:22:33.500Z,43.77
2019-02-02T19:25:00.896Z,38.20
2019-02-02T19:27:28.592Z,34.47
2019-02-02T19:29:56.002Z,44.73
2019-02-02T19:32:23.398Z,45.20
2019-02-02T19:34:50.851Z,41.47
2019-02-02T19:37:20.984Z,42.63
2019-02-02T19:39:47.451Z,35.27
2019-02-02T19:42:15.110Z,43.13
2019-02-02T19:44:42.502Z,37.67
2019-02-02T19:47:16.198Z,48.77
2019-02-02T19:49:39.174Z,36.00
2019-02-02T19:52:06.598Z,38.30
2019-02-02T19:54:33.988Z,33.37
2019-02-02T19:57:01.471Z,37.97
2019-02-02T19:59:28.854Z,38.90
2019-02-02T20:01:56.254Z,29.47
2019-02-02T20:04:23.690Z,32.47
2019-02-02T20:06:51.082Z,31.20
2019-02-02T20:09:18.638Z,33.30
2019-02-02T20:11:46.502Z,29.23
2019-02-02T20:14:13.894Z,30.37
2019-02-02T20:16:41.283Z,30.13
2019-02-02T20:19:08.708Z,30.17
2019-02-02T20:21:36.086Z,27.17
2019-02-02T20:24:03.780Z,33.97
2019-02-02T20:26:31.227Z,28.03
2019-02-02T20:28:58.625Z,35.20
2019-02-02T20:31:26.028Z,32.03
2019-02-02T20:33:53.664Z,31.50
2019-02-02T20:36:21.051Z,38.87
2019-02-02T20:38:48.455Z,38.20
2019-02-02T20:41:16.037Z,35.70
2019-02-02T20:43:43.424Z,33.47
2019-02-02T20:46:10.816Z,27.00
2019-02-02T20:48:38.424Z,25.50
2019-02-02T20:51:05.827Z,28.60
2019-02-02T20:53:33.230Z,28.80
2019-02-02T20:56:00.663Z,27.43
2019-02-02T20:58:28.059Z,27.50
2019-02-02T21:00:55.456Z,27.43
2019-02-02T21:03:23.338Z,24.50
2019-02-02T21:05:52.420Z,33.70
2019-02-02T21:08:19.924Z,28.03
2019-02-02T21:10:47.509Z,21.40
2019-02-02T21:13:15.309Z,24.23
2019-02-02T21:15:42.707Z,30.90
2019-02-02T21:18:11.921Z,33.07
2019-02-02T21:20:39.426Z,22.30
2019-02-02T21:23:06.819Z,28.53
2019-02-02T21:25:34.307Z,31.50
2019-02-02T21:28:01.702Z,31.53
2019-02-02T21:30:31.246Z,40.13
2019-02-02T21:32:58.990Z,36.17
2019-02-02T21:35:26.383Z,39.50
2019-02-02T21:37:53.883Z,44.30
2019-02-02T21:40:24.037Z,42.53
2019-02-02T21:42:51.443Z,36.73
2019-02-02T21:45:18.835Z,42.37
2019-02-02T21:47:46.629Z,40.53
2019-02-02T21:50:16.274Z,43.60
2019-02-02T21:52:43.650Z,45.83
2019-02-02T21:55:13.484Z,40.80
2019-02-02T21:57:40.862Z,41.33
2019-02-02T22:00:14.503Z,41.33
2019-02-02T22:02:42.135Z,40.80
2019-02-02T22:05:09.534Z,43.17
2019-02-02T22:07:36.926Z,38.83
2019-02-02T22:10:06.139Z,44.70
2019-02-02T22:12:33.778Z,41.23
2019-02-02T22:15:01.167Z,41.03
2019-02-02T22:17:28.902Z,42.37
2019-02-02T22:19:56.307Z,39.50
2019-02-02T22:22:23.603Z,41.97
2019-02-02T22:24:51.150Z,50.33
2019-02-02T22:27:18.546Z,43.73
2019-02-02T22:29:45.944Z,40.27
2019-02-02T22:32:14.253Z,42.43
2019-02-02T22:34:41.654Z,48.90
2019-02-02T22:37:09.048Z,47.93
2019-02-02T22:39:36.491Z,46.67
2019-02-02T22:42:03.882Z,50.57
2019-02-02T22:44:31.283Z,44.37
2019-02-02T22:46:58.987Z,45.07
2019-02-02T22:49:26.381Z,42.53
2019-02-02T22:51:53.766Z,50.90
2019-02-02T22:54:21.618Z,43.90
2019-02-02T22:56:49.025Z,43.00
2019-02-02T22:59:16.406Z,54.17
2019-02-02T23:01:48.201Z,41.83
2019-02-02T23:04:40.746Z,40.60
2019-02-02T23:07:28.662Z,46.30
2019-02-02T23:10:40.138Z,43.10
2019-02-02T23:13:34.406Z,42.83
2019-02-02T23:16:23.260Z,47.70
2019-02-02T23:18:51.294Z,43.57
2019-02-02T23:21:18.714Z,45.63
2019-02-02T23:23:46.102Z,42.83
2019-02-02T23:26:13.578Z,52.60
2019-02-02T23:28:40.973Z,41.10
2019-02-02T23:31:08.362Z,49.83
2019-02-02T23:33:36.515Z,42.17
2019-02-02T23:36:04.110Z,40.97
2019-02-02T23:38:31.527Z,40.43
2019-02-02T23:40:59.117Z,36.70
2019-02-02T23:43:26.502Z,34.43
2019-02-02T23:45:53.893Z,33.23
2019-02-02T23:48:21.690Z,27.80
2019-02-02T23:50:49.091Z,31.73
2019-02-02T23:53:16.479Z,31.90
2019-02-02T23:55:44.009Z,27.20
2019-02-02T23:58:11.392Z,26.70
